createdAt,value
2022-10-25T00:00:15.208Z,112.5
2022-10-25T00:00:35.284Z,112.5
2022-10-25T00:00:55.333Z,112.5
2022-10-25T00:01:15.505Z,112.5
2022-10-25T00:01:35.628Z,90
2022-10-25T00:01:55.682Z,67.5
2022-10-25T00:02:15.697Z,67.5
2022-10-25T00:02:35.747Z,67.5
2022-10-25T00:02:55.758Z,90
2022-10-25T00:03:15.823Z,112.5
2022-10-25T00:03:35.907Z,112.5
2022-10-25T00:03:55.972Z,135
2022-10-25T00:04:16.064Z,135
2022-10-25T00:04:36.122Z,135
2022-10-25T00:04:56.201Z,135
2022-10-25T00:05:16.262Z,135
2022-10-25T00:05:36.326Z,112.5
2022-10-25T00:05:56.383Z,112.5
2022-10-25T00:06:16.414Z,67.5
2022-10-25T00:06:36.493Z,112.5
2022-10-25T00:06:56.553Z,270
2022-10-25T00:07:16.615Z,225
2022-10-25T00:07:36.712Z,202.5
2022-10-25T00:07:56.747Z,202.5
2022-10-25T00:08:16.803Z,180
2022-10-25T00:08:36.858Z,157.5
2022-10-25T00:08:56.922Z,135
2022-10-25T00:09:16.975Z,135
2022-10-25T00:09:37.050Z,90
2022-10-25T00:09:57.093Z,67.5
2022-10-25T00:10:18.386Z,67.5
2022-10-25T00:10:37.214Z,112.5
2022-10-25T00:10:57.285Z,135
2022-10-25T00:11:17.362Z,135
2022-10-25T00:11:37.429Z,135
2022-10-25T00:11:57.463Z,157.5
2022-10-25T00:12:17.552Z,270
2022-10-25T00:12:57.662Z,315
2022-10-25T00:13:17.726Z,202.5
2022-10-25T00:13:37.787Z,90
2022-10-25T00:13:57.827Z,45
2022-10-25T00:14:17.901Z,45
2022-10-25T00:14:37.958Z,202.5
2022-10-25T00:14:58.013Z,292.5
2022-10-25T00:15:18.067Z,292.5
2022-10-25T00:15:38.121Z,180
2022-10-25T00:15:58.177Z,135
2022-10-25T00:16:18.275Z,157.5
2022-10-25T00:16:38.322Z,135
2022-10-25T00:16:58.385Z,90
2022-10-25T00:17:18.445Z,90
2022-10-25T00:17:38.481Z,225
2022-10-25T00:17:58.568Z,315
2022-10-25T00:18:18.619Z,337.5
2022-10-25T00:18:38.683Z,337.5
2022-10-25T00:18:58.737Z,315
2022-10-25T00:19:18.797Z,292.5
2022-10-25T00:19:38.853Z,315
2022-10-25T00:19:58.913Z,315
2022-10-25T00:20:18.963Z,315
2022-10-25T00:20:39.023Z,315
2022-10-25T00:20:59.125Z,292.5
2022-10-25T00:21:19.145Z,247.5
2022-10-25T00:21:39.205Z,247.5
2022-10-25T00:21:59.267Z,247.5
2022-10-25T00:22:19.311Z,180
2022-10-25T00:22:39.374Z,157.5
2022-10-25T00:22:59.443Z,135
2022-10-25T00:23:19.510Z,135
2022-10-25T00:23:39.566Z,157.5
2022-10-25T00:23:59.628Z,180
2022-10-25T00:24:19.699Z,180
2022-10-25T00:24:39.752Z,180
2022-10-25T00:24:59.807Z,180
2022-10-25T00:25:19.868Z,157.5
2022-10-25T00:25:39.921Z,157.5
2022-10-25T00:25:59.988Z,157.5
2022-10-25T00:26:20.051Z,180
2022-10-25T00:26:40.104Z,135
2022-10-25T00:27:00.154Z,112.5
2022-10-25T00:27:20.198Z,90
2022-10-25T00:27:40.288Z,67.5
2022-10-25T00:28:00.329Z,90
2022-10-25T00:28:20.406Z,112.5
2022-10-25T00:28:40.495Z,135
2022-10-25T00:29:00.538Z,135
2022-10-25T00:29:20.735Z,135
2022-10-25T00:29:40.683Z,180
2022-10-25T00:30:00.736Z,180
2022-10-25T00:30:20.801Z,180
2022-10-25T00:30:40.847Z,180
2022-10-25T00:31:00.907Z,157.5
2022-10-25T00:31:20.976Z,157.5
2022-10-25T00:31:41.027Z,135
2022-10-25T00:32:01.082Z,157.5
2022-10-25T00:32:21.150Z,157.5
2022-10-25T00:32:41.184Z,180
2022-10-25T00:33:01.262Z,202.5
2022-10-25T00:33:21.305Z,180
2022-10-25T00:33:41.381Z,157.5
2022-10-25T00:34:01.442Z,112.5
2022-10-25T00:34:21.500Z,112.5
2022-10-25T00:34:41.579Z,135
2022-10-25T00:35:01.632Z,112.5
2022-10-25T00:35:21.696Z,112.5
2022-10-25T00:35:41.764Z,112.5
2022-10-25T00:36:01.819Z,90
2022-10-25T00:36:21.901Z,90
2022-10-25T00:36:41.956Z,112.5
2022-10-25T00:37:02.025Z,112.5
2022-10-25T00:37:22.096Z,112.5
2022-10-25T00:37:42.199Z,112.5
2022-10-25T00:38:02.207Z,112.5
2022-10-25T00:38:22.272Z,112.5
2022-10-25T00:38:42.322Z,112.5
2022-10-25T00:39:02.425Z,112.5
2022-10-25T00:39:22.439Z,112.5
2022-10-25T00:39:42.509Z,112.5
2022-10-25T00:40:02.602Z,112.5
2022-10-25T00:40:22.657Z,112.5
2022-10-25T00:40:42.705Z,112.5
2022-10-25T00:41:02.772Z,135
2022-10-25T00:41:22.835Z,157.5
2022-10-25T00:41:42.903Z,180
2022-10-25T00:42:02.944Z,135
2022-10-25T00:42:23.015Z,135
2022-10-25T00:42:43.215Z,112.5
2022-10-25T00:43:03.145Z,112.5
2022-10-25T00:43:23.186Z,157.5
2022-10-25T00:43:43.242Z,157.5
2022-10-25T00:44:03.294Z,135
2022-10-25T00:44:23.349Z,112.5
2022-10-25T00:44:43.423Z,112.5
2022-10-25T00:45:03.463Z,112.5
2022-10-25T00:45:23.533Z,135
2022-10-25T00:45:43.583Z,135
2022-10-25T00:46:03.660Z,135
2022-10-25T00:46:23.700Z,135
2022-10-25T00:46:43.767Z,135
2022-10-25T00:47:03.812Z,112.5
2022-10-25T00:47:23.886Z,112.5
2022-10-25T00:47:44.229Z,112.5
2022-10-25T00:48:03.993Z,112.5
2022-10-25T00:48:24.051Z,112.5
2022-10-25T00:48:44.107Z,112.5
2022-10-25T00:49:04.167Z,112.5
2022-10-25T00:49:24.204Z,135
2022-10-25T00:49:44.280Z,180
2022-10-25T00:50:04.338Z,157.5
2022-10-25T00:50:24.392Z,112.5
2022-10-25T00:50:44.447Z,112.5
2022-10-25T00:51:04.511Z,112.5
2022-10-25T00:51:24.569Z,112.5
2022-10-25T00:51:44.629Z,135
2022-10-25T00:52:04.693Z,135
2022-10-25T00:52:24.760Z,135
2022-10-25T00:52:44.792Z,135
2022-10-25T00:53:04.870Z,135
2022-10-25T00:53:24.921Z,135
2022-10-25T00:53:44.962Z,112.5
2022-10-25T00:54:05.015Z,112.5
2022-10-25T00:54:25.070Z,112.5
2022-10-25T00:54:45.142Z,135
2022-10-25T00:55:05.203Z,112.5
2022-10-25T00:55:25.257Z,135
2022-10-25T00:55:45.321Z,157.5
2022-10-25T00:56:05.419Z,180
2022-10-25T00:56:25.478Z,157.5
2022-10-25T00:56:45.543Z,180
2022-10-25T00:57:05.605Z,180
2022-10-25T00:57:25.667Z,180
2022-10-25T00:57:45.810Z,180
2022-10-25T00:58:05.792Z,180
2022-10-25T00:58:25.833Z,180
2022-10-25T00:58:45.898Z,180
2022-10-25T00:59:05.943Z,180
2022-10-25T00:59:25.979Z,157.5
2022-10-25T00:59:46.056Z,180
2022-10-25T01:00:06.127Z,225
2022-10-25T01:00:26.174Z,247.5
2022-10-25T01:00:46.238Z,247.5
2022-10-25T01:01:06.373Z,247.5
2022-10-25T01:01:26.499Z,247.5
2022-10-25T01:01:46.527Z,247.5
2022-10-25T01:02:06.605Z,247.5
2022-10-25T01:02:26.580Z,247.5
2022-10-25T01:02:46.746Z,247.5
2022-10-25T01:03:06.672Z,247.5
2022-10-25T01:03:26.729Z,247.5
2022-10-25T01:03:46.778Z,247.5
2022-10-25T01:04:06.848Z,247.5
2022-10-25T01:04:26.902Z,247.5
2022-10-25T01:04:46.947Z,247.5
2022-10-25T01:05:07.004Z,247.5
2022-10-25T01:05:27.058Z,247.5
2022-10-25T01:05:47.140Z,270
2022-10-25T01:06:07.179Z,270
2022-10-25T01:06:27.239Z,270
2022-10-25T01:06:47.295Z,270
2022-10-25T01:07:07.364Z,292.5
2022-10-25T01:07:27.432Z,315
2022-10-25T01:07:47.748Z,337.5
2022-10-25T01:08:07.556Z,337.5
2022-10-25T01:08:27.619Z,315
2022-10-25T01:08:47.682Z,180
2022-10-25T01:09:07.733Z,135
2022-10-25T01:09:27.802Z,67.5
2022-10-25T01:09:47.847Z,22.5
2022-10-25T01:10:07.897Z,22.5
2022-10-25T01:10:27.960Z,22.5
2022-10-25T01:10:48.016Z,22.5
2022-10-25T01:11:08.162Z,22.5
2022-10-25T01:11:28.140Z,22.5
2022-10-25T01:11:48.190Z,22.5
2022-10-25T01:12:08.254Z,22.5
2022-10-25T01:12:28.320Z,22.5
2022-10-25T01:12:51.285Z,45
2022-10-25T01:13:08.452Z,45
2022-10-25T01:13:28.514Z,45
2022-10-25T01:13:48.567Z,45
2022-10-25T01:14:08.631Z,90
2022-10-25T01:14:28.681Z,135
2022-10-25T01:14:48.750Z,135
2022-10-25T01:15:08.807Z,112.5
2022-10-25T01:15:28.860Z,112.5
2022-10-25T01:15:48.919Z,112.5
2022-10-25T01:16:08.989Z,135
2022-10-25T01:16:29.011Z,135
2022-10-25T01:16:49.083Z,112.5
2022-10-25T01:17:09.155Z,112.5
2022-10-25T01:17:29.208Z,112.5
2022-10-25T01:17:49.252Z,112.5
2022-10-25T01:18:09.334Z,135
2022-10-25T01:18:29.411Z,135
2022-10-25T01:18:49.453Z,112.5
2022-10-25T01:19:09.514Z,112.5
2022-10-25T01:19:29.651Z,157.5
2022-10-25T01:19:49.641Z,225
2022-10-25T01:20:09.693Z,270
2022-10-25T01:20:29.757Z,292.5
2022-10-25T01:20:49.812Z,292.5
2022-10-25T01:21:09.871Z,315
2022-10-25T01:21:29.939Z,315
2022-10-25T01:21:49.993Z,225
2022-10-25T01:22:10.046Z,157.5
2022-10-25T01:22:30.105Z,90
2022-10-25T01:22:50.149Z,45
2022-10-25T01:23:10.222Z,45
2022-10-25T01:23:30.286Z,90
2022-10-25T01:23:50.345Z,135
2022-10-25T01:24:10.406Z,180
2022-10-25T01:24:30.454Z,247.5
2022-10-25T01:24:50.507Z,270
2022-10-25T01:25:10.591Z,247.5
2022-10-25T01:25:30.633Z,202.5
2022-10-25T01:25:50.675Z,112.5
2022-10-25T01:26:10.802Z,112.5
2022-10-25T01:26:30.840Z,247.5
2022-10-25T01:26:50.905Z,270
2022-10-25T01:27:10.959Z,135
2022-10-25T01:27:31.018Z,67.5
2022-10-25T01:27:51.132Z,22.5
2022-10-25T01:28:11.121Z,22.5
2022-10-25T01:28:31.198Z,67.5
2022-10-25T01:28:51.253Z,225
2022-10-25T01:29:11.303Z,270
2022-10-25T01:29:31.353Z,157.5
2022-10-25T01:29:51.431Z,135
2022-10-25T01:30:11.487Z,67.5
2022-10-25T01:30:31.544Z,67.5
2022-10-25T01:30:51.618Z,202.5
2022-10-25T01:31:11.672Z,247.5
2022-10-25T01:31:31.763Z,247.5
2022-10-25T01:31:51.798Z,292.5
2022-10-25T01:32:11.866Z,180
2022-10-25T01:32:31.913Z,67.5
2022-10-25T01:32:51.980Z,22.5
2022-10-25T01:33:12.040Z,22.5
2022-10-25T01:33:32.103Z,45
2022-10-25T01:33:52.150Z,202.5
2022-10-25T01:34:12.212Z,292.5
2022-10-25T01:34:32.258Z,180
2022-10-25T01:34:52.304Z,225
2022-10-25T01:35:12.383Z,247.5
2022-10-25T01:35:32.457Z,135
2022-10-25T01:35:52.546Z,45
2022-10-25T01:36:32.666Z,22.5
2022-10-25T01:36:52.704Z,22.5
2022-10-25T01:37:12.765Z,22.5
2022-10-25T01:37:32.835Z,22.5
2022-10-25T01:37:52.884Z,22.5
2022-10-25T01:38:12.942Z,90
2022-10-25T01:38:32.975Z,67.5
2022-10-25T01:38:53.046Z,67.5
2022-10-25T01:39:13.117Z,202.5
2022-10-25T01:39:33.171Z,315
2022-10-25T01:39:53.237Z,337.5
2022-10-25T01:40:13.315Z,337.5
2022-10-25T01:40:33.392Z,292.5
2022-10-25T01:40:53.461Z,247.5
2022-10-25T01:41:13.517Z,202.5
2022-10-25T01:41:33.566Z,292.5
2022-10-25T01:41:53.632Z,337.5
2022-10-25T01:42:13.689Z,337.5
2022-10-25T01:42:33.754Z,0
2022-10-25T01:42:53.813Z,337.5
2022-10-25T01:43:13.866Z,337.5
2022-10-25T01:43:33.926Z,337.5
2022-10-25T01:43:53.981Z,0
2022-10-25T01:44:14.042Z,315
2022-10-25T01:44:34.095Z,157.5
2022-10-25T01:44:54.180Z,67.5
2022-10-25T01:45:14.226Z,45
2022-10-25T01:45:34.261Z,45
2022-10-25T01:45:54.330Z,180
2022-10-25T01:46:14.379Z,247.5
2022-10-25T01:46:34.497Z,315
2022-10-25T01:46:54.531Z,337.5
2022-10-25T01:47:14.588Z,337.5
2022-10-25T01:47:34.656Z,337.5
2022-10-25T01:47:54.684Z,337.5
2022-10-25T01:48:14.741Z,292.5
2022-10-25T01:48:34.832Z,135
2022-10-25T01:48:54.926Z,67.5
2022-10-25T01:49:14.991Z,45
2022-10-25T01:49:35.053Z,45
2022-10-25T01:49:55.123Z,22.5
2022-10-25T01:50:15.189Z,22.5
2022-10-25T01:50:35.284Z,180
2022-10-25T01:50:55.341Z,292.5
2022-10-25T01:51:15.400Z,337.5
2022-10-25T01:51:35.450Z,337.5
2022-10-25T01:51:55.514Z,0
2022-10-25T01:52:15.615Z,0
2022-10-25T01:52:35.708Z,292.5
2022-10-25T01:52:55.768Z,135
2022-10-25T01:53:15.829Z,67.5
2022-10-25T01:53:35.886Z,67.5
2022-10-25T01:53:55.965Z,67.5
2022-10-25T01:54:16.041Z,67.5
2022-10-25T01:54:36.105Z,67.5
2022-10-25T01:54:56.180Z,67.5
2022-10-25T01:55:16.267Z,67.5
2022-10-25T01:55:36.362Z,67.5
2022-10-25T01:55:56.437Z,45
2022-10-25T01:56:16.482Z,45
2022-10-25T01:56:36.567Z,135
2022-10-25T01:56:56.652Z,135
2022-10-25T01:57:16.712Z,67.5
2022-10-25T01:57:36.778Z,45
2022-10-25T01:57:56.866Z,90
2022-10-25T01:58:16.952Z,135
2022-10-25T01:58:37.026Z,157.5
2022-10-25T01:58:57.107Z,180
2022-10-25T01:59:17.195Z,157.5
2022-10-25T01:59:37.287Z,157.5
2022-10-25T01:59:57.360Z,157.5
2022-10-25T02:00:17.443Z,157.5
2022-10-25T02:00:37.538Z,157.5
2022-10-25T02:00:57.582Z,157.5
2022-10-25T02:01:17.806Z,157.5
2022-10-25T02:01:37.969Z,157.5
2022-10-25T02:01:57.798Z,157.5
2022-10-25T02:02:17.867Z,180
2022-10-25T02:02:37.944Z,180
2022-10-25T02:02:58.012Z,157.5
2022-10-25T02:03:18.051Z,135
2022-10-25T02:03:38.101Z,112.5
2022-10-25T02:03:58.163Z,112.5
2022-10-25T02:04:18.230Z,112.5
2022-10-25T02:04:38.296Z,112.5
2022-10-25T02:04:58.381Z,112.5
2022-10-25T02:05:18.470Z,112.5
2022-10-25T02:05:38.549Z,112.5
2022-10-25T02:05:58.607Z,112.5
2022-10-25T02:06:18.684Z,112.5
2022-10-25T02:06:38.763Z,112.5
2022-10-25T02:06:58.868Z,90
2022-10-25T02:07:18.921Z,67.5
2022-10-25T02:07:38.969Z,45
2022-10-25T02:07:59.049Z,67.5
2022-10-25T02:08:19.114Z,90
2022-10-25T02:08:39.194Z,90
2022-10-25T02:08:59.276Z,90
2022-10-25T02:09:19.339Z,90
2022-10-25T02:09:39.391Z,90
2022-10-25T02:09:59.544Z,90
2022-10-25T02:10:19.529Z,90
2022-10-25T02:10:39.599Z,90
2022-10-25T02:10:59.681Z,112.5
2022-10-25T02:11:19.750Z,112.5
2022-10-25T02:11:39.827Z,112.5
2022-10-25T02:11:59.890Z,112.5
2022-10-25T02:12:19.952Z,112.5
2022-10-25T02:12:40.046Z,112.5
2022-10-25T02:13:00.169Z,112.5
2022-10-25T02:13:20.206Z,135
2022-10-25T02:13:40.282Z,157.5
2022-10-25T02:14:00.350Z,180
2022-10-25T02:14:20.415Z,180
2022-10-25T02:14:40.516Z,180
2022-10-25T02:15:00.606Z,180
2022-10-25T02:15:20.646Z,180
2022-10-25T02:15:40.710Z,180
2022-10-25T02:16:00.781Z,180
2022-10-25T02:16:20.867Z,180
2022-10-25T02:16:40.947Z,180
2022-10-25T02:17:01.043Z,180
2022-10-25T02:17:21.146Z,247.5
2022-10-25T02:17:41.242Z,315
2022-10-25T02:18:01.346Z,337.5
2022-10-25T02:18:21.479Z,337.5
2022-10-25T02:18:41.477Z,337.5
2022-10-25T02:19:01.574Z,337.5
2022-10-25T02:19:21.624Z,337.5
2022-10-25T02:19:41.714Z,225
2022-10-25T02:20:01.774Z,90
2022-10-25T02:20:21.835Z,45
2022-10-25T02:20:44.482Z,45
2022-10-25T02:21:01.962Z,67.5
2022-10-25T02:21:22.006Z,90
2022-10-25T02:21:42.081Z,112.5
2022-10-25T02:22:02.170Z,90
2022-10-25T02:22:22.250Z,45
2022-10-25T02:22:42.342Z,45
2022-10-25T02:23:02.399Z,157.5
2022-10-25T02:23:22.506Z,135
2022-10-25T02:23:42.586Z,180
2022-10-25T02:24:02.715Z,270
2022-10-25T02:24:22.762Z,157.5
2022-10-25T02:24:42.814Z,112.5
2022-10-25T02:25:02.882Z,225
2022-10-25T02:25:22.974Z,135
2022-10-25T02:25:43.060Z,67.5
2022-10-25T02:26:03.116Z,22.5
2022-10-25T02:26:23.170Z,22.5
2022-10-25T02:26:43.323Z,0
2022-10-25T02:27:03.328Z,22.5
2022-10-25T02:27:23.432Z,22.5
2022-10-25T02:27:43.563Z,45
2022-10-25T02:28:03.559Z,202.5
2022-10-25T02:28:23.637Z,292.5
2022-10-25T02:28:43.718Z,157.5
2022-10-25T02:29:03.820Z,90
2022-10-25T02:29:23.901Z,67.5
2022-10-25T02:29:43.964Z,67.5
2022-10-25T02:30:04.024Z,90
2022-10-25T02:30:24.110Z,157.5
2022-10-25T02:30:44.180Z,180
2022-10-25T02:31:04.252Z,180
2022-10-25T02:31:24.304Z,157.5
2022-10-25T02:31:44.399Z,90
2022-10-25T02:32:04.446Z,67.5
2022-10-25T02:32:24.527Z,90
2022-10-25T02:32:44.611Z,157.5
2022-10-25T02:33:04.671Z,135
2022-10-25T02:33:24.741Z,157.5
2022-10-25T02:33:44.836Z,225
2022-10-25T02:34:04.918Z,247.5
2022-10-25T02:34:24.983Z,112.5
2022-10-25T02:34:45.070Z,45
2022-10-25T02:35:05.220Z,22.5
2022-10-25T02:35:25.190Z,45
2022-10-25T02:35:45.245Z,112.5
2022-10-25T02:36:05.308Z,112.5
2022-10-25T02:36:25.391Z,90
2022-10-25T02:36:45.437Z,112.5
2022-10-25T02:37:05.488Z,135
2022-10-25T02:37:25.562Z,135
2022-10-25T02:37:45.950Z,135
2022-10-25T02:38:05.670Z,112.5
2022-10-25T02:38:25.725Z,112.5
2022-10-25T02:38:45.791Z,112.5
2022-10-25T02:39:05.845Z,90
2022-10-25T02:39:27.830Z,45
2022-10-25T02:39:45.973Z,22.5
2022-10-25T02:40:06.029Z,22.5
2022-10-25T02:40:26.076Z,22.5
2022-10-25T02:40:46.136Z,22.5
2022-10-25T02:41:06.180Z,22.5
2022-10-25T02:41:26.243Z,22.5
2022-10-25T02:41:46.300Z,22.5
2022-10-25T02:42:06.369Z,22.5
2022-10-25T02:42:26.449Z,22.5
2022-10-25T02:42:46.547Z,22.5
2022-10-25T02:43:06.615Z,22.5
2022-10-25T02:43:26.700Z,22.5
2022-10-25T02:43:46.759Z,22.5
2022-10-25T02:44:06.829Z,45
2022-10-25T02:44:26.893Z,67.5
2022-10-25T02:44:46.944Z,90
2022-10-25T02:45:07.004Z,112.5
2022-10-25T02:45:27.064Z,112.5
2022-10-25T02:45:47.123Z,112.5
2022-10-25T02:46:07.183Z,112.5
2022-10-25T02:46:27.226Z,180
2022-10-25T02:46:47.294Z,247.5
2022-10-25T02:47:07.363Z,270
2022-10-25T02:47:27.406Z,292.5
2022-10-25T02:47:47.775Z,315
2022-10-25T02:48:07.523Z,157.5
2022-10-25T02:48:27.579Z,67.5
2022-10-25T02:48:47.644Z,45
2022-10-25T02:49:07.694Z,67.5
2022-10-25T02:49:27.751Z,45
2022-10-25T02:49:47.820Z,90
2022-10-25T02:50:07.872Z,135
2022-10-25T02:50:27.946Z,202.5
2022-10-25T02:50:47.990Z,270
2022-10-25T02:51:08.035Z,315
2022-10-25T02:51:28.100Z,292.5
2022-10-25T02:51:48.187Z,315
2022-10-25T02:52:08.204Z,315
2022-10-25T02:52:28.271Z,337.5
2022-10-25T02:52:48.599Z,337.5
2022-10-25T02:53:08.418Z,202.5
2022-10-25T02:53:28.463Z,180
2022-10-25T02:53:48.507Z,112.5
2022-10-25T02:54:08.583Z,112.5
2022-10-25T02:54:28.649Z,135
2022-10-25T02:54:48.707Z,112.5
2022-10-25T02:55:08.769Z,112.5
2022-10-25T02:55:28.830Z,112.5
2022-10-25T02:55:48.887Z,112.5
2022-10-25T02:56:08.950Z,90
2022-10-25T02:56:29.006Z,90
2022-10-25T02:56:49.062Z,135
2022-10-25T02:57:09.120Z,90
2022-10-25T02:57:29.174Z,135
2022-10-25T02:57:49.237Z,180
2022-10-25T02:58:09.300Z,180
2022-10-25T02:58:29.383Z,157.5
2022-10-25T02:58:49.440Z,90
2022-10-25T02:59:09.499Z,67.5
2022-10-25T02:59:29.549Z,135
2022-10-25T02:59:49.641Z,157.5
2022-10-25T03:00:09.774Z,180
2022-10-25T03:00:29.888Z,225
2022-10-25T03:00:49.908Z,270
2022-10-25T03:01:09.998Z,270
2022-10-25T03:01:30.039Z,292.5
2022-10-25T03:01:50.064Z,270
2022-10-25T03:02:10.051Z,157.5
2022-10-25T03:02:30.120Z,90
2022-10-25T03:02:50.402Z,67.5
2022-10-25T03:03:10.232Z,90
2022-10-25T03:03:30.301Z,90
2022-10-25T03:03:50.383Z,90
2022-10-25T03:04:10.461Z,90
2022-10-25T03:04:30.533Z,90
2022-10-25T03:04:50.584Z,90
2022-10-25T03:05:10.643Z,67.5
2022-10-25T03:05:30.717Z,112.5
2022-10-25T03:05:50.758Z,180
2022-10-25T03:06:10.799Z,180
2022-10-25T03:06:30.872Z,180
2022-10-25T03:06:50.934Z,180
2022-10-25T03:07:10.986Z,157.5
2022-10-25T03:07:31.047Z,135
2022-10-25T03:07:51.098Z,67.5
2022-10-25T03:08:11.158Z,90
2022-10-25T03:08:31.222Z,90
2022-10-25T03:08:51.265Z,90
2022-10-25T03:09:11.351Z,90
2022-10-25T03:09:31.411Z,67.5
2022-10-25T03:09:51.508Z,45
2022-10-25T03:10:11.575Z,22.5
2022-10-25T03:10:31.633Z,0
2022-10-25T03:10:51.691Z,0
2022-10-25T03:11:11.748Z,45
2022-10-25T03:11:31.803Z,225
2022-10-25T03:11:51.862Z,270
2022-10-25T03:12:11.921Z,292.5
2022-10-25T03:12:31.981Z,247.5
2022-10-25T03:12:52.044Z,270
2022-10-25T03:13:12.090Z,292.5
2022-10-25T03:13:32.154Z,315
2022-10-25T03:13:52.185Z,315
2022-10-25T03:14:12.246Z,180
2022-10-25T03:14:32.323Z,67.5
2022-10-25T03:14:52.424Z,45
2022-10-25T03:15:12.471Z,67.5
2022-10-25T03:15:32.534Z,90
2022-10-25T03:15:52.600Z,90
2022-10-25T03:16:12.652Z,67.5
2022-10-25T03:16:32.717Z,22.5
2022-10-25T03:16:52.775Z,45
2022-10-25T03:17:12.830Z,67.5
2022-10-25T03:17:32.887Z,67.5
2022-10-25T03:17:52.939Z,45
2022-10-25T03:18:12.997Z,45
2022-10-25T03:18:33.062Z,22.5
2022-10-25T03:18:53.124Z,45
2022-10-25T03:19:13.175Z,112.5
2022-10-25T03:19:33.218Z,157.5
2022-10-25T03:19:53.287Z,180
2022-10-25T03:20:13.338Z,180
2022-10-25T03:20:33.403Z,202.5
2022-10-25T03:20:53.453Z,202.5
2022-10-25T03:21:13.514Z,202.5
2022-10-25T03:21:34.355Z,202.5
2022-10-25T03:21:53.610Z,202.5
2022-10-25T03:22:13.697Z,157.5
2022-10-25T03:22:33.748Z,135
2022-10-25T03:22:53.797Z,90
2022-10-25T03:23:13.862Z,45
2022-10-25T03:23:33.917Z,22.5
2022-10-25T03:23:53.976Z,67.5
2022-10-25T03:24:14.025Z,225
2022-10-25T03:24:34.093Z,270
2022-10-25T03:24:54.152Z,225
2022-10-25T03:25:14.220Z,202.5
2022-10-25T03:25:34.281Z,180
2022-10-25T03:25:54.528Z,180
2022-10-25T03:26:14.377Z,180
2022-10-25T03:26:34.429Z,135
2022-10-25T03:26:54.510Z,112.5
2022-10-25T03:27:14.572Z,135
2022-10-25T03:27:34.627Z,157.5
2022-10-25T03:27:54.653Z,157.5
2022-10-25T03:28:14.738Z,157.5
2022-10-25T03:28:34.805Z,157.5
2022-10-25T03:28:54.864Z,157.5
2022-10-25T03:29:14.924Z,157.5
2022-10-25T03:29:35.002Z,157.5
2022-10-25T03:29:55.028Z,157.5
2022-10-25T03:30:15.102Z,157.5
2022-10-25T03:30:35.136Z,157.5
2022-10-25T03:30:55.203Z,157.5
2022-10-25T03:31:15.247Z,157.5
2022-10-25T03:31:35.333Z,157.5
2022-10-25T03:31:55.373Z,180
2022-10-25T03:32:15.447Z,180
2022-10-25T03:32:35.491Z,180
2022-10-25T03:32:55.561Z,112.5
2022-10-25T03:33:15.673Z,67.5
2022-10-25T03:33:35.728Z,112.5
2022-10-25T03:33:55.773Z,270
2022-10-25T03:34:15.825Z,337.5
2022-10-25T03:34:35.904Z,337.5
2022-10-25T03:34:55.936Z,315
2022-10-25T03:35:15.999Z,337.5
2022-10-25T03:35:36.063Z,337.5
2022-10-25T03:35:56.115Z,337.5
2022-10-25T03:36:16.177Z,337.5
2022-10-25T03:36:36.222Z,337.5
2022-10-25T03:36:56.305Z,337.5
2022-10-25T03:37:16.362Z,337.5
2022-10-25T03:37:36.424Z,337.5
2022-10-25T03:37:56.475Z,315
2022-10-25T03:38:16.542Z,315
2022-10-25T03:38:36.593Z,292.5
2022-10-25T03:38:56.644Z,135
2022-10-25T03:39:16.706Z,67.5
2022-10-25T03:39:36.769Z,45
2022-10-25T03:39:56.815Z,22.5
2022-10-25T03:40:16.880Z,22.5
2022-10-25T03:40:36.941Z,22.5
2022-10-25T03:40:56.995Z,22.5
2022-10-25T03:41:17.055Z,45
2022-10-25T03:41:37.108Z,45
2022-10-25T03:41:57.168Z,67.5
2022-10-25T03:42:17.225Z,90
2022-10-25T03:42:37.287Z,90
2022-10-25T03:42:57.341Z,112.5
2022-10-25T03:43:17.462Z,112.5
2022-10-25T03:43:37.449Z,157.5
2022-10-25T03:43:57.512Z,180
2022-10-25T03:44:17.569Z,202.5
2022-10-25T03:44:37.611Z,202.5
2022-10-25T03:44:57.677Z,202.5
2022-10-25T03:45:17.747Z,202.5
2022-10-25T03:45:37.797Z,202.5
2022-10-25T03:45:57.864Z,202.5
2022-10-25T03:46:17.906Z,202.5
2022-10-25T03:46:37.976Z,180
2022-10-25T03:46:58.037Z,112.5
2022-10-25T03:47:18.094Z,67.5
2022-10-25T03:47:38.148Z,45
2022-10-25T03:47:58.210Z,22.5
2022-10-25T03:48:18.263Z,22.5
2022-10-25T03:48:38.341Z,112.5
2022-10-25T03:48:58.405Z,157.5
2022-10-25T03:49:18.465Z,180
2022-10-25T03:49:38.550Z,180
2022-10-25T03:49:58.614Z,157.5
2022-10-25T03:50:18.671Z,135
2022-10-25T03:50:38.711Z,135
2022-10-25T03:50:58.753Z,135
2022-10-25T03:51:18.829Z,135
2022-10-25T03:51:38.902Z,135
2022-10-25T03:52:01.334Z,135
2022-10-25T03:52:19.008Z,135
2022-10-25T03:52:39.090Z,180
2022-10-25T03:52:59.293Z,202.5
2022-10-25T03:53:19.198Z,202.5
2022-10-25T03:53:39.236Z,180
2022-10-25T03:53:59.288Z,157.5
2022-10-25T03:54:19.346Z,157.5
2022-10-25T03:54:39.409Z,135
2022-10-25T03:54:59.474Z,135
2022-10-25T03:55:19.531Z,135
2022-10-25T03:55:39.597Z,135
2022-10-25T03:55:59.687Z,135
2022-10-25T03:56:19.766Z,135
2022-10-25T03:56:39.838Z,135
2022-10-25T03:56:59.906Z,157.5
2022-10-25T03:57:19.987Z,157.5
2022-10-25T03:57:40.100Z,157.5
2022-10-25T03:58:00.155Z,202.5
2022-10-25T03:58:20.220Z,270
2022-10-25T03:58:40.297Z,292.5
2022-10-25T03:59:00.353Z,292.5
2022-10-25T03:59:20.438Z,292.5
2022-10-25T03:59:40.530Z,292.5
2022-10-25T04:00:00.600Z,292.5
2022-10-25T04:00:20.695Z,292.5
2022-10-25T04:00:40.844Z,292.5
2022-10-25T04:01:00.948Z,292.5
2022-10-25T04:01:21.020Z,292.5
2022-10-25T04:01:41.076Z,225
2022-10-25T04:02:01.154Z,135
2022-10-25T04:02:21.139Z,90
2022-10-25T04:02:41.202Z,90
2022-10-25T04:03:02.205Z,90
2022-10-25T04:03:21.357Z,112.5
2022-10-25T04:03:41.424Z,135
2022-10-25T04:04:01.518Z,135
2022-10-25T04:04:21.584Z,157.5
2022-10-25T04:04:41.654Z,157.5
2022-10-25T04:05:01.714Z,157.5
2022-10-25T04:05:21.785Z,90
2022-10-25T04:05:41.857Z,67.5
2022-10-25T04:06:01.937Z,45
2022-10-25T04:06:27.960Z,67.5
2022-10-25T04:06:48.048Z,67.5
2022-10-25T04:07:08.131Z,67.5
2022-10-25T04:07:28.216Z,67.5
2022-10-25T04:07:48.629Z,67.5
2022-10-25T04:08:08.375Z,67.5
2022-10-25T04:08:28.450Z,90
2022-10-25T04:08:48.521Z,90
2022-10-25T04:09:08.573Z,135
2022-10-25T04:09:28.627Z,180
2022-10-25T04:09:48.675Z,180
2022-10-25T04:10:08.767Z,180
2022-10-25T04:10:28.822Z,180
2022-10-25T04:10:48.892Z,180
2022-10-25T04:11:08.948Z,180
2022-10-25T04:11:29.028Z,180
2022-10-25T04:11:49.073Z,180
2022-10-25T04:12:09.131Z,180
2022-10-25T04:12:29.221Z,180
2022-10-25T04:12:49.269Z,112.5
2022-10-25T04:13:09.339Z,67.5
2022-10-25T04:13:29.413Z,45
2022-10-25T04:13:49.483Z,22.5
2022-10-25T04:14:09.552Z,45
2022-10-25T04:14:29.623Z,67.5
2022-10-25T04:14:49.700Z,90
2022-10-25T04:15:09.777Z,67.5
2022-10-25T04:15:29.818Z,22.5
2022-10-25T04:15:49.890Z,22.5
2022-10-25T04:16:09.963Z,0
2022-10-25T04:16:30.028Z,0
2022-10-25T04:16:50.108Z,0
2022-10-25T04:17:10.197Z,0
2022-10-25T04:17:30.293Z,0
2022-10-25T04:17:50.348Z,0
2022-10-25T04:18:10.454Z,0
2022-10-25T04:18:30.537Z,0
2022-10-25T04:18:50.590Z,0
2022-10-25T04:19:10.669Z,0
2022-10-25T04:19:30.718Z,0
2022-10-25T04:19:50.763Z,0
2022-10-25T04:20:10.819Z,135
2022-10-25T04:20:30.851Z,247.5
2022-10-25T04:20:50.902Z,292.5
2022-10-25T04:21:10.975Z,292.5
2022-10-25T04:21:31.065Z,292.5
2022-10-25T04:21:51.133Z,270
2022-10-25T04:22:11.199Z,270
2022-10-25T04:22:31.380Z,292.5
2022-10-25T04:22:51.350Z,292.5
2022-10-25T04:23:11.422Z,315
2022-10-25T04:23:31.484Z,315
2022-10-25T04:23:51.552Z,315
2022-10-25T04:24:11.649Z,337.5
2022-10-25T04:24:31.707Z,337.5
2022-10-25T04:24:51.814Z,247.5
2022-10-25T04:25:11.893Z,135
2022-10-25T04:25:31.974Z,90
2022-10-25T04:25:52.033Z,67.5
2022-10-25T04:26:12.092Z,90
2022-10-25T04:26:32.185Z,112.5
2022-10-25T04:26:52.251Z,135
2022-10-25T04:27:12.334Z,135
2022-10-25T04:27:32.375Z,135
2022-10-25T04:27:52.447Z,135
2022-10-25T04:28:12.546Z,135
2022-10-25T04:28:32.590Z,112.5
2022-10-25T04:28:52.673Z,112.5
2022-10-25T04:29:12.750Z,157.5
2022-10-25T04:29:32.797Z,90
2022-10-25T04:29:52.861Z,45
2022-10-25T04:30:12.932Z,45